Аэропорт: Алыкель. Норильск

ICAO: UOOO

METAR:
2020-10-24 05:30:00
UOOO 240530Z 18005MPS 9000 -SN SCT035 M16/M18 Q1009 R19/490155 NOSIG RMK QFE740/0987
METAR:
2020-10-24 04:50:00
TAF UOOO 240450Z 2406/2506 18004G09MPS 9999 -SHSN SCT030CB TEMPO 2406/2418 4000 -SHSN BR FEW007 BKN018CB